Startpagina
METAR-TAF:

METAR-TAF

Vliegvelden :

Julius Nyerere International Airport

Dar es Salaam, Tanzania

breedte: 06-52S, lengte: 039-12E, hoogte: 55 m

Actueel weer

Dit bericht is 58 minuten geleden gemaakt, om 16:00 UTC
Wind 10 kt uit het oostzuidoosten
Temperatuur 26°C
Vochtigheid 65%
Druk 1019 hPa
Zicht 10 km of meer
Weinig wolken op 2000 ft

METAR: HTDA 151600Z 11010KT 9999 FEW020 26/19 Q1019 NOSIG

Tijdstip: 19:58 (16:58 UTC)

Verwachting

Dit bericht is 5 uur en het 58 minuten geleden gemaakt, om 11:00 UTC
Verwachting geldig van 15 om 12 UTC tot 16 om 18 UTC
Wind 10 kt uit het oostzuidoosten
Zicht 10 km of meer
Gebroken wolken op 2400 ft
Wijzigt naar
van 15 om 22 UTC tot 16 om 02 UTC
Wind kt uit het noorden

TAF: HTDA 151100Z 1512/1618 12010KT 9999 BKN024 BECMG 1522/1602 00000KT

Waarnemingen en weersverwachtingen van meer dan 4000 vliegvelden (METAR en TAF).

De beschikbare stations zijn de gele en rode punten op de kaart.

Ga met uw muis naar het station om de naam te zien.

Klik dan om waarnemingen en weersverwachtingen te zien.

kaart wijzigen: klik op de groene knoppen met een zwart kruis om in te zoomen, op de groene knop met een streepje om uit te zoomen of op de groene pijlen voor aangrenzende kaarten.


METAR-TAF: